Terminal Aerodrome Forecast
Issued by NWS Twin Cities, MN

Home | Current Version | Previous Version | Text Only | Print | Product List | Glossary On
Versions: 1 2 3 4 5 6 7 8 9 10 11 12 13 14 15 16
000
FTUS43 KMPX 280500
TAFEAU
TAF
KEAU 280527Z 2806/2906 35006KT P6SM SKC
     FM280900 35002KT 4SM BR SCT050
     FM281200 34005KT P6SM FEW040
     FM281500 33009KT P6SM SCT045
     FM290100 32003KT P6SM SKC=

USA.gov is the U.S. government's official web portal to all federal, state and local government web resources and services.